sensor_id;sensor_type;location;lat;lon;timestamp;pressure;altitude;pressure_sealevel;temperature;humidity
11525;BME280;5819;49.648;8.330;2023-02-21T00:00:35;100935.97;;;7.12;100.00
11525;BME280;5819;49.648;8.330;2023-02-21T00:03:20;100926.16;;;7.29;100.00
11525;BME280;5819;49.648;8.330;2023-02-21T00:06:06;100924.28;;;7.35;100.00
11525;BME280;5819;49.648;8.330;2023-02-21T00:08:52;100914.09;;;7.28;100.00
11525;BME280;5819;49.648;8.330;2023-02-21T00:11:41;100924.41;;;7.29;100.00
11525;BME280;5819;49.648;8.330;2023-02-21T00:14:27;100916.00;;;7.61;100.00
11525;BME280;5819;49.648;8.330;2023-02-21T00:17:12;100921.13;;;7.63;100.00
11525;BME280;5819;49.648;8.330;2023-02-21T00:19:57;100920.38;;;7.58;100.00
11525;BME280;5819;49.648;8.330;2023-02-21T00:22:44;100917.84;;;7.54;100.00
11525;BME280;5819;49.648;8.330;2023-02-21T00:25:29;100920.50;;;7.51;100.00
11525;BME280;5819;49.648;8.330;2023-02-21T00:28:16;100919.84;;;7.42;100.00
11525;BME280;5819;49.648;8.330;2023-02-21T00:31:03;100919.19;;;7.32;100.00
11525;BME280;5819;49.648;8.330;2023-02-21T00:33:50;100912.34;;;7.30;100.00
11525;BME280;5819;49.648;8.330;2023-02-21T00:36:36;100915.03;;;7.24;100.00
11525;BME280;5819;49.648;8.330;2023-02-21T00:39:22;100912.53;;;7.19;100.00
11525;BME280;5819;49.648;8.330;2023-02-21T00:42:07;100915.13;;;7.19;100.00
11525;BME280;5819;49.648;8.330;2023-02-21T00:44:54;100920.34;;;7.16;100.00
11525;BME280;5819;49.648;8.330;2023-02-21T00:47:39;100924.66;;;7.16;100.00
11525;BME280;5819;49.648;8.330;2023-02-21T00:50:24;100921.22;;;7.17;100.00
11525;BME280;5819;49.648;8.330;2023-02-21T00:53:10;100921.22;;;7.15;100.00
11525;BME280;5819;49.648;8.330;2023-02-21T00:55:55;100920.44;;;7.12;100.00
11525;BME280;5819;49.648;8.330;2023-02-21T00:58:40;100922.38;;;7.02;100.00
11525;BME280;5819;49.648;8.330;2023-02-21T01:01:27;100918.00;;;7.02;100.00
11525;BME280;5819;49.648;8.330;2023-02-21T01:04:12;100917.41;;;6.90;100.00
11525;BME280;5819;49.648;8.330;2023-02-21T01:06:57;100920.03;;;6.87;100.00
11525;BME280;5819;49.648;8.330;2023-02-21T01:09:43;100921.84;;;6.83;100.00
11525;BME280;5819;49.648;8.330;2023-02-21T01:12:28;100913.19;;;6.86;100.00
11525;BME280;5819;49.648;8.330;2023-02-21T01:15:14;100919.03;;;6.95;100.00
11525;BME280;5819;49.648;8.330;2023-02-21T01:18:01;100923.31;;;6.96;100.00
11525;BME280;5819;49.648;8.330;2023-02-21T01:20:46;100917.22;;;6.99;100.00
11525;BME280;5819;49.648;8.330;2023-02-21T01:23:33;100910.19;;;7.07;100.00
11525;BME280;5819;49.648;8.330;2023-02-21T01:26:19;100903.28;;;7.07;100.00
11525;BME280;5819;49.648;8.330;2023-02-21T01:29:04;100912.81;;;7.04;100.00
11525;BME280;5819;49.648;8.330;2023-02-21T01:31:49;100902.50;;;7.02;100.00
11525;BME280;5819;49.648;8.330;2023-02-21T01:34:39;100899.13;;;6.99;100.00
11525;BME280;5819;49.648;8.330;2023-02-21T01:37:24;100905.22;;;6.96;100.00
11525;BME280;5819;49.648;8.330;2023-02-21T01:40:13;100912.19;;;6.93;100.00
11525;BME280;5819;49.648;8.330;2023-02-21T01:42:59;100905.28;;;6.92;100.00
11525;BME280;5819;49.648;8.330;2023-02-21T01:45:52;100901.03;;;6.89;100.00
11525;BME280;5819;49.648;8.330;2023-02-21T01:48:39;100896.91;;;6.81;100.00
11525;BME280;5819;49.648;8.330;2023-02-21T01:51:30;100897.06;;;6.72;100.00
11525;BME280;5819;49.648;8.330;2023-02-21T01:54:18;100889.31;;;6.70;100.00
11525;BME280;5819;49.648;8.330;2023-02-21T01:57:06;100895.31;;;6.72;100.00
11525;BME280;5819;49.648;8.330;2023-02-21T01:59:55;100891.81;;;6.75;100.00
11525;BME280;5819;49.648;8.330;2023-02-21T02:02:49;100895.16;;;6.81;100.00
11525;BME280;5819;49.648;8.330;2023-02-21T02:05:37;100895.31;;;6.74;100.00
11525;BME280;5819;49.648;8.330;2023-02-21T02:08:27;100891.97;;;6.67;100.00
11525;BME280;5819;49.648;8.330;2023-02-21T02:11:23;100891.03;;;6.71;100.00
11525;BME280;5819;49.648;8.330;2023-02-21T02:14:32;100877.31;;;6.68;100.00
11525;BME280;5819;49.648;8.330;2023-02-21T02:17:12;100877.28;;;6.69;100.00
11525;BME280;5819;49.648;8.330;2023-02-21T02:23:08;100885.03;;;6.69;100.00
11525;BME280;5819;49.648;8.330;2023-02-21T02:25:59;100880.94;;;6.57;100.00
11525;BME280;5819;49.648;8.330;2023-02-21T02:28:48;100885.34;;;6.51;100.00
11525;BME280;5819;49.648;8.330;2023-02-21T02:31:44;100879.38;;;6.47;100.00
11525;BME280;5819;49.648;8.330;2023-02-21T02:34:37;100882.91;;;6.43;100.00
11525;BME280;5819;49.648;8.330;2023-02-21T02:37:13;100874.34;;;6.40;100.00
11525;BME280;5819;49.648;8.330;2023-02-21T02:39:50;100871.72;;;6.43;100.00
11525;BME280;5819;49.648;8.330;2023-02-21T02:42:30;100875.16;;;6.43;100.00
11525;BME280;5819;49.648;8.330;2023-02-21T02:45:05;100881.25;;;6.39;100.00
11525;BME280;5819;49.648;8.330;2023-02-21T02:47:37;100873.63;;;6.32;100.00
11525;BME280;5819;49.648;8.330;2023-02-21T02:50:08;100885.75;;;6.30;100.00
11525;BME280;5819;49.648;8.330;2023-02-21T02:52:48;100892.72;;;6.23;100.00
11525;BME280;5819;49.648;8.330;2023-02-21T02:55:23;100896.69;;;5.86;100.00
11525;BME280;5819;49.648;8.330;2023-02-21T02:57:55;100890.06;;;5.70;100.00
11525;BME280;5819;49.648;8.330;2023-02-21T03:00:23;100894.53;;;5.55;100.00
11525;BME280;5819;49.648;8.330;2023-02-21T03:03:03;100894.59;;;5.51;100.00
11525;BME280;5819;49.648;8.330;2023-02-21T03:05:42;100899.00;;;5.43;100.00
11525;BME280;5819;49.648;8.330;2023-02-21T03:08:23;100896.47;;;5.38;100.00
11525;BME280;5819;49.648;8.330;2023-02-21T03:10:59;100891.31;;;5.41;100.00
11525;BME280;5819;49.648;8.330;2023-02-21T03:13:42;100888.69;;;5.43;100.00
11525;BME280;5819;49.648;8.330;2023-02-21T03:16:19;100895.44;;;5.53;100.00
11525;BME280;5819;49.648;8.330;2023-02-21T03:18:53;100893.63;;;5.58;100.00
11525;BME280;5819;49.648;8.330;2023-02-21T03:21:28;100895.31;;;5.62;100.00
11525;BME280;5819;49.648;8.330;2023-02-21T03:23:59;100892.78;;;5.59;100.00
11525;BME280;5819;49.648;8.330;2023-02-21T03:26:31;100888.31;;;5.70;100.00
11525;BME280;5819;49.648;8.330;2023-02-21T03:29:14;100893.44;;;5.73;100.00
11525;BME280;5819;49.648;8.330;2023-02-21T03:31:46;100887.38;;;5.76;100.00
11525;BME280;5819;49.648;8.330;2023-02-21T03:34:15;100878.63;;;5.89;100.00
11525;BME280;5819;49.648;8.330;2023-02-21T03:36:45;100876.00;;;5.90;100.00
11525;BME280;5819;49.648;8.330;2023-02-21T03:39:14;100882.88;;;5.91;100.00
11525;BME280;5819;49.648;8.330;2023-02-21T03:41:42;100881.16;;;5.90;100.00
11525;BME280;5819;49.648;8.330;2023-02-21T03:44:11;100884.59;;;5.92;100.00
11525;BME280;5819;49.648;8.330;2023-02-21T03:46:39;100886.31;;;5.92;100.00
11525;BME280;5819;49.648;8.330;2023-02-21T03:49:07;100878.63;;;5.87;100.00
11525;BME280;5819;49.648;8.330;2023-02-21T03:51:35;100884.69;;;5.83;100.00
11525;BME280;5819;49.648;8.330;2023-02-21T03:54:05;100890.72;;;5.82;100.00
11525;BME280;5819;49.648;8.330;2023-02-21T03:56:39;100883.03;;;5.79;100.00
11525;BME280;5819;49.648;8.330;2023-02-21T03:59:23;100880.34;;;5.88;100.00
11525;BME280;5819;49.648;8.330;2023-02-21T04:01:51;100884.66;;;5.89;100.00
11525;BME280;5819;49.648;8.330;2023-02-21T04:04:20;100880.38;;;5.87;100.00
11525;BME280;5819;49.648;8.330;2023-02-21T04:06:56;100873.53;;;5.81;100.00
11525;BME280;5819;49.648;8.330;2023-02-21T04:09:25;100870.88;;;5.86;100.00
11525;BME280;5819;49.648;8.330;2023-02-21T04:11:53;100872.63;;;5.84;100.00
11525;BME280;5819;49.648;8.330;2023-02-21T04:14:21;100874.34;;;5.83;100.00
11525;BME280;5819;49.648;8.330;2023-02-21T04:16:50;100871.81;;;5.82;100.00
11525;BME280;5819;49.648;8.330;2023-02-21T04:19:18;100869.25;;;5.82;100.00
11525;BME280;5819;49.648;8.330;2023-02-21T04:21:46;100869.97;;;5.90;100.00
11525;BME280;5819;49.648;8.330;2023-02-21T04:24:15;100871.78;;;5.85;100.00
11525;BME280;5819;49.648;8.330;2023-02-21T04:26:46;100869.19;;;5.86;100.00
11525;BME280;5819;49.648;8.330;2023-02-21T04:29:14;100867.44;;;5.88;100.00
11525;BME280;5819;49.648;8.330;2023-02-21T04:31:43;100871.75;;;5.88;100.00
11525;BME280;5819;49.648;8.330;2023-02-21T04:34:14;100867.53;;;5.79;100.00
11525;BME280;5819;49.648;8.330;2023-02-21T04:36:45;100865.72;;;5.23;100.00
11525;BME280;5819;49.648;8.330;2023-02-21T04:39:14;100876.53;;;4.81;100.00
11525;BME280;5819;49.648;8.330;2023-02-21T04:41:43;100881.03;;;4.60;100.00
11525;BME280;5819;49.648;8.330;2023-02-21T04:44:13;100881.13;;;4.53;100.00
11525;BME280;5819;49.648;8.330;2023-02-21T04:46:43;100877.72;;;4.46;100.00
11525;BME280;5819;49.648;8.330;2023-02-21T04:49:12;100873.34;;;4.56;100.00
11525;BME280;5819;49.648;8.330;2023-02-21T04:51:40;100875.88;;;4.60;100.00
11525;BME280;5819;49.648;8.330;2023-02-21T04:54:07;100869.84;;;4.61;100.00
11525;BME280;5819;49.648;8.330;2023-02-21T04:56:38;100875.00;;;4.61;100.00
11525;BME280;5819;49.648;8.330;2023-02-21T04:59:06;100871.47;;;4.70;100.00
11525;BME280;5819;49.648;8.330;2023-02-21T05:01:35;100871.38;;;4.78;100.00
11525;BME280;5819;49.648;8.330;2023-02-21T05:04:03;100868.72;;;4.87;100.00
11525;BME280;5819;49.648;8.330;2023-02-21T05:06:32;100867.84;;;4.89;100.00
11525;BME280;5819;49.648;8.330;2023-02-21T05:09:00;100857.41;;;4.98;100.00
11525;BME280;5819;49.648;8.330;2023-02-21T05:11:32;100867.78;;;4.94;100.00
11525;BME280;5819;49.648;8.330;2023-02-21T05:14:01;100871.25;;;4.90;100.00
11525;BME280;5819;49.648;8.330;2023-02-21T05:16:29;100870.41;;;4.91;100.00
11525;BME280;5819;49.648;8.330;2023-02-21T05:18:58;100867.00;;;4.89;100.00
11525;BME280;5819;49.648;8.330;2023-02-21T05:21:28;100862.75;;;4.85;100.00
11525;BME280;5819;49.648;8.330;2023-02-21T05:23:56;100868.91;;;4.71;100.00
11525;BME280;5819;49.648;8.330;2023-02-21T05:26:25;100869.91;;;4.54;100.00
11525;BME280;5819;49.648;8.330;2023-02-21T05:28:55;100872.63;;;4.40;100.00
11525;BME280;5819;49.648;8.330;2023-02-21T05:31:23;100875.25;;;4.34;100.00
11525;BME280;5819;49.648;8.330;2023-02-21T05:33:51;100883.09;;;4.19;100.00
11525;BME280;5819;49.648;8.330;2023-02-21T05:36:21;100886.59;;;4.12;100.00
11525;BME280;5819;49.648;8.330;2023-02-21T05:38:53;100884.19;;;3.92;100.00
11525;BME280;5819;49.648;8.330;2023-02-21T05:41:22;100872.97;;;3.98;100.00
11525;BME280;5819;49.648;8.330;2023-02-21T05:43:51;100880.69;;;3.99;100.00
11525;BME280;5819;49.648;8.330;2023-02-21T05:46:23;100884.94;;;4.02;100.00
11525;BME280;5819;49.648;8.330;2023-02-21T05:48:51;100874.66;;;4.03;100.00
11525;BME280;5819;49.648;8.330;2023-02-21T05:51:22;100872.06;;;4.06;100.00
11525;BME280;5819;49.648;8.330;2023-02-21T05:53:50;100873.75;;;4.06;100.00
11525;BME280;5819;49.648;8.330;2023-02-21T05:56:19;100883.19;;;4.05;100.00
11525;BME280;5819;49.648;8.330;2023-02-21T05:58:48;100872.09;;;4.03;100.00
11525;BME280;5819;49.648;8.330;2023-02-21T06:01:15;100874.66;;;4.02;100.00
11525;BME280;5819;49.648;8.330;2023-02-21T06:03:44;100871.22;;;4.03;100.00
11525;BME280;5819;49.648;8.330;2023-02-21T06:06:14;100872.09;;;4.05;100.00
11525;BME280;5819;49.648;8.330;2023-02-21T06:08:46;100866.91;;;4.08;100.00
11525;BME280;5819;49.648;8.330;2023-02-21T06:11:15;100866.88;;;4.09;100.00
11525;BME280;5819;49.648;8.330;2023-02-21T06:13:43;100867.72;;;4.11;100.00
11525;BME280;5819;49.648;8.330;2023-02-21T06:16:11;100863.47;;;4.09;100.00
11525;BME280;5819;49.648;8.330;2023-02-21T06:18:40;100863.47;;;4.09;100.00
11525;BME280;5819;49.648;8.330;2023-02-21T06:21:08;100860.81;;;4.13;100.00
11525;BME280;5819;49.648;8.330;2023-02-21T06:23:36;100864.25;;;4.14;100.00
11525;BME280;5819;49.648;8.330;2023-02-21T06:26:05;100871.16;;;4.12;100.00
11525;BME280;5819;49.648;8.330;2023-02-21T06:28:33;100874.59;;;4.09;100.00
11525;BME280;5819;49.648;8.330;2023-02-21T06:31:02;100870.34;;;4.07;100.00
11525;BME280;5819;49.648;8.330;2023-02-21T06:33:30;100874.66;;;4.02;100.00
11525;BME280;5819;49.648;8.330;2023-02-21T06:36:02;100867.78;;;4.02;100.00
11525;BME280;5819;49.648;8.330;2023-02-21T06:38:30;100874.66;;;4.03;100.00
11525;BME280;5819;49.648;8.330;2023-02-21T06:40:58;100874.59;;;4.09;100.00
11525;BME280;5819;49.648;8.330;2023-02-21T06:43:28;100884.84;;;4.15;100.00
11525;BME280;5819;49.648;8.330;2023-02-21T06:45:55;100883.97;;;4.19;100.00
11525;BME280;5819;49.648;8.330;2023-02-21T06:48:24;100880.53;;;4.17;100.00
11525;BME280;5819;49.648;8.330;2023-02-21T06:50:52;100881.44;;;4.16;100.00
11525;BME280;5819;49.648;8.330;2023-02-21T06:53:20;100882.25;;;4.20;100.00
11525;BME280;5819;49.648;8.330;2023-02-21T06:55:48;100882.13;;;4.35;100.00
11525;BME280;5819;49.648;8.330;2023-02-21T06:58:15;100886.28;;;4.50;100.00
11525;BME280;5819;49.648;8.330;2023-02-21T07:00:45;100886.16;;;4.63;100.00
11525;BME280;5819;49.648;8.330;2023-02-21T07:03:13;100876.63;;;4.71;100.00
11525;BME280;5819;49.648;8.330;2023-02-21T07:05:41;100880.97;;;4.68;100.00
11525;BME280;5819;49.648;8.330;2023-02-21T07:08:09;100882.69;;;4.66;100.00
11525;BME280;5819;49.648;8.330;2023-02-21T07:10:37;100887.00;;;4.62;100.00
11525;BME280;5819;49.648;8.330;2023-02-21T07:13:05;100892.13;;;4.65;100.00
11525;BME280;5819;49.648;8.330;2023-02-21T07:15:33;100883.50;;;4.71;100.00
11525;BME280;5819;49.648;8.330;2023-02-21T07:18:02;100889.44;;;4.79;100.00
11525;BME280;5819;49.648;8.330;2023-02-21T07:20:30;100885.91;;;4.88;100.00
11525;BME280;5819;49.648;8.330;2023-02-21T07:22:58;100879.00;;;4.91;100.00
11525;BME280;5819;49.648;8.330;2023-02-21T07:25:27;100879.72;;;5.02;100.00
11525;BME280;5819;49.648;8.330;2023-02-21T07:27:55;100873.59;;;5.12;100.00
11525;BME280;5819;49.648;8.330;2023-02-21T07:30:23;100878.59;;;5.25;100.00
11525;BME280;5819;49.648;8.330;2023-02-21T07:32:51;100878.41;;;5.38;100.00
11525;BME280;5819;49.648;8.330;2023-02-21T07:35:20;100873.91;;;5.54;100.00
11525;BME280;5819;49.648;8.330;2023-02-21T07:37:48;100878.94;;;5.63;100.00
11525;BME280;5819;49.648;8.330;2023-02-21T07:40:16;100869.38;;;5.71;100.00
11525;BME280;5819;49.648;8.330;2023-02-21T07:42:44;100871.03;;;5.75;100.00
11525;BME280;5819;49.648;8.330;2023-02-21T07:45:14;100878.72;;;5.81;100.00
11525;BME280;5819;49.648;8.330;2023-02-21T07:47:43;100876.84;;;5.91;100.00
11525;BME280;5819;49.648;8.330;2023-02-21T07:50:14;100878.31;;;6.08;100.00
11525;BME280;5819;49.648;8.330;2023-02-21T07:52:44;100880.84;;;6.11;100.00
11525;BME280;5819;49.648;8.330;2023-02-21T07:55:13;100884.16;;;6.20;100.00
11525;BME280;5819;49.648;8.330;2023-02-21T07:57:42;100877.13;;;6.28;100.00
11525;BME280;5819;49.648;8.330;2023-02-21T08:00:10;100872.78;;;6.31;100.00
11525;BME280;5819;49.648;8.330;2023-02-21T08:02:46;100862.31;;;6.39;100.00
11525;BME280;5819;49.648;8.330;2023-02-21T08:05:16;100874.16;;;6.52;100.00
11525;BME280;5819;49.648;8.330;2023-02-21T08:07:46;100863.66;;;6.61;100.00
11525;BME280;5819;49.648;8.330;2023-02-21T08:10:19;100860.78;;;6.76;100.00
11525;BME280;5819;49.648;8.330;2023-02-21T08:12:48;100859.63;;;6.91;100.00
11525;BME280;5819;49.648;8.330;2023-02-21T08:15:16;100857.72;;;7.02;100.00
11525;BME280;5819;49.648;8.330;2023-02-21T08:17:46;100864.22;;;7.21;100.00
11525;BME280;5819;49.648;8.330;2023-02-21T08:20:15;100868.34;;;7.30;100.00
11525;BME280;5819;49.648;8.330;2023-02-21T08:22:43;100862.06;;;7.40;100.00
11525;BME280;5819;49.648;8.330;2023-02-21T08:25:14;100860.97;;;7.51;100.00
11525;BME280;5819;49.648;8.330;2023-02-21T08:27:43;100860.66;;;7.65;100.00
11525;BME280;5819;49.648;8.330;2023-02-21T08:30:14;100853.59;;;7.72;100.00
11525;BME280;5819;49.648;8.330;2023-02-21T08:32:44;100856.84;;;7.81;100.00
11525;BME280;5819;49.648;8.330;2023-02-21T08:35:14;100857.41;;;7.94;100.00
11525;BME280;5819;49.648;8.330;2023-02-21T08:37:43;100850.44;;;7.96;100.00
11525;BME280;5819;49.648;8.330;2023-02-21T08:40:14;100862.22;;;8.09;100.00
11525;BME280;5819;49.648;8.330;2023-02-21T08:42:42;100861.75;;;8.30;100.00
11525;BME280;5819;49.648;8.330;2023-02-21T08:45:14;100854.84;;;8.28;100.00
11525;BME280;5819;49.648;8.330;2023-02-21T08:47:43;100850.22;;;8.42;100.00
11525;BME280;5819;49.648;8.330;2023-02-21T08:50:11;100854.16;;;8.55;100.00
11525;BME280;5819;49.648;8.330;2023-02-21T08:52:39;100848.06;;;8.58;100.00
11525;BME280;5819;49.648;8.330;2023-02-21T08:55:07;100847.66;;;8.73;100.00
11525;BME280;5819;49.648;8.330;2023-02-21T08:57:36;100843.88;;;8.84;100.00
11525;BME280;5819;49.648;8.330;2023-02-21T09:00:06;100847.09;;;8.94;100.00
11525;BME280;5819;49.648;8.330;2023-02-21T09:02:36;100835.59;;;9.03;100.00
11525;BME280;5819;49.648;8.330;2023-02-21T09:05:07;100831.75;;;9.16;100.00
11525;BME280;5819;49.648;8.330;2023-02-21T09:07:35;100832.34;;;9.25;99.60
11525;BME280;5819;49.648;8.330;2023-02-21T09:10:04;100833.06;;;9.30;99.79
11525;BME280;5819;49.648;8.330;2023-02-21T09:12:32;100829.28;;;9.40;99.47
11525;BME280;5819;49.648;8.330;2023-02-21T09:15:02;100828.81;;;9.56;98.46
11525;BME280;5819;49.648;8.330;2023-02-21T09:17:30;100817.44;;;9.60;97.45
11525;BME280;5819;49.648;8.330;2023-02-21T09:19:59;100814.66;;;9.66;97.71
11525;BME280;5819;49.648;8.330;2023-02-21T09:22:27;100819.50;;;9.76;97.08
11525;BME280;5819;49.648;8.330;2023-02-21T09:24:57;100813.22;;;9.83;97.24
11525;BME280;5819;49.648;8.330;2023-02-21T09:27:25;100812.19;;;9.89;95.94
11525;BME280;5819;49.648;8.330;2023-02-21T09:30:06;100806.38;;;10.07;95.83
11525;BME280;5819;49.648;8.330;2023-02-21T09:32:37;100801.81;;;10.15;95.31
11525;BME280;5819;49.648;8.330;2023-02-21T09:35:06;100801.50;;;10.24;94.67
11525;BME280;5819;49.648;8.330;2023-02-21T09:37:36;100795.63;;;10.44;92.82
11525;BME280;5819;49.648;8.330;2023-02-21T09:40:11;100798.91;;;10.49;93.37
11525;BME280;5819;49.648;8.330;2023-02-21T09:42:42;100795.50;;;10.47;92.78
11525;BME280;5819;49.648;8.330;2023-02-21T09:45:14;100786.69;;;10.51;92.18
11525;BME280;5819;49.648;8.330;2023-02-21T09:47:48;100793.56;;;10.54;92.17
11525;BME280;5819;49.648;8.330;2023-02-21T09:50:22;100793.44;;;10.57;91.94
11525;BME280;5819;49.648;8.330;2023-02-21T09:52:55;100792.28;;;10.89;90.57
11525;BME280;5819;49.648;8.330;2023-02-21T09:55:28;100793.53;;;10.78;88.67
11525;BME280;5819;49.648;8.330;2023-02-21T09:57:56;100781.41;;;11.01;88.35
11525;BME280;5819;49.648;8.330;2023-02-21T10:00:28;100786.00;;;10.94;87.94
11525;BME280;5819;49.648;8.330;2023-02-21T10:03:08;100776.34;;;10.98;89.04
11525;BME280;5819;49.648;8.330;2023-02-21T10:05:43;100775.75;;;11.13;87.70
11525;BME280;5819;49.648;8.330;2023-02-21T10:08:21;100773.94;;;11.15;87.22
11525;BME280;5819;49.648;8.330;2023-02-21T10:10:57;100778.97;;;11.19;88.58
11525;BME280;5819;49.648;8.330;2023-02-21T10:13:36;100775.00;;;11.33;86.99
11525;BME280;5819;49.648;8.330;2023-02-21T10:16:12;100777.63;;;11.54;86.45
11525;BME280;5819;49.648;8.330;2023-02-21T10:18:47;100776.50;;;11.60;86.66
11525;BME280;5819;49.648;8.330;2023-02-21T10:21:23;100764.75;;;11.93;84.81
11525;BME280;5819;49.648;8.330;2023-02-21T10:23:53;100778.81;;;11.89;83.64
11525;BME280;5819;49.648;8.330;2023-02-21T10:26:25;100762.69;;;11.80;82.19
11525;BME280;5819;49.648;8.330;2023-02-21T10:28:55;100763.34;;;12.06;82.05
11525;BME280;5819;49.648;8.330;2023-02-21T10:31:32;100754.34;;;12.13;82.97
11525;BME280;5819;49.648;8.330;2023-02-21T10:34:02;100761.44;;;12.10;81.78
11525;BME280;5819;49.648;8.330;2023-02-21T10:36:30;100756.63;;;12.21;81.07
11525;BME280;5819;49.648;8.330;2023-02-21T10:39:03;100750.81;;;12.35;81.38
11525;BME280;5819;49.648;8.330;2023-02-21T10:41:36;100753.75;;;12.47;80.56
11525;BME280;5819;49.648;8.330;2023-02-21T10:44:09;100754.47;;;12.51;80.21
11525;BME280;5819;49.648;8.330;2023-02-21T10:46:44;100755.81;;;12.59;79.30
11525;BME280;5819;49.648;8.330;2023-02-21T10:49:22;100751.97;;;12.48;79.81
11525;BME280;5819;49.648;8.330;2023-02-21T10:52:08;100749.47;;;12.65;78.14
11525;BME280;5819;49.648;8.330;2023-02-21T10:54:37;100753.28;;;12.58;78.88
11525;BME280;5819;49.648;8.330;2023-02-21T10:57:07;100744.00;;;12.90;78.03
11525;BME280;5819;49.648;8.330;2023-02-21T10:59:39;100736.50;;;13.01;77.45
11525;BME280;5819;49.648;8.330;2023-02-21T11:05:13;100735.97;;;12.94;76.42
11525;BME280;5819;49.648;8.330;2023-02-21T11:07:54;100727.38;;;13.11;76.46
11525;BME280;5819;49.648;8.330;2023-02-21T11:10:27;100729.00;;;13.13;76.24
11525;BME280;5819;49.648;8.330;2023-02-21T11:13:06;100718.75;;;13.28;75.72
11525;BME280;5819;49.648;8.330;2023-02-21T11:15:35;100720.78;;;13.40;75.48
11525;BME280;5819;49.648;8.330;2023-02-21T11:18:10;100724.31;;;13.20;75.12
11525;BME280;5819;49.648;8.330;2023-02-21T11:20:41;100712.84;;;13.04;75.57
11525;BME280;5819;49.648;8.330;2023-02-21T11:23:22;100708.78;;;13.36;75.61
11525;BME280;5819;49.648;8.330;2023-02-21T11:25:58;100707.56;;;13.43;74.86
11525;BME280;5819;49.648;8.330;2023-02-21T11:28:27;100704.97;;;13.24;74.96
11525;BME280;5819;49.648;8.330;2023-02-21T11:31:07;100703.25;;;13.42;74.96
11525;BME280;5819;49.648;8.330;2023-02-21T11:33:38;100689.38;;;13.23;74.17
11525;BME280;5819;49.648;8.330;2023-02-21T11:36:12;100690.56;;;13.34;74.80
11525;BME280;5819;49.648;8.330;2023-02-21T11:38:42;100678.56;;;13.30;74.63
11525;BME280;5819;49.648;8.330;2023-02-21T11:41:21;100681.44;;;13.43;74.62
11525;BME280;5819;49.648;8.330;2023-02-21T11:43:51;100671.59;;;13.65;74.34
11525;BME280;5819;49.648;8.330;2023-02-21T11:46:31;100673.19;;;13.85;72.83
11525;BME280;5819;49.648;8.330;2023-02-21T11:49:02;100668.97;;;13.65;73.61
11525;BME280;5819;49.648;8.330;2023-02-21T11:51:39;100668.53;;;13.74;73.58
11525;BME280;5819;49.648;8.330;2023-02-21T11:54:08;100671.50;;;14.01;72.69
11525;BME280;5819;49.648;8.330;2023-02-21T11:56:43;100651.81;;;14.11;72.05
11525;BME280;5819;49.648;8.330;2023-02-21T11:59:24;100650.44;;;13.70;72.52
11525;BME280;5819;49.648;8.330;2023-02-21T12:04:59;100632.00;;;14.23;70.71
11525;BME280;5819;49.648;8.330;2023-02-21T12:07:39;100622.88;;;14.47;71.05
11525;BME280;5819;49.648;8.330;2023-02-21T12:10:37;100616.91;;;14.76;69.80
11525;BME280;5819;49.648;8.330;2023-02-21T12:13:15;100609.41;;;15.16;69.27
11525;BME280;5819;49.648;8.330;2023-02-21T12:15:50;100594.88;;;15.70;67.06
11525;BME280;5819;49.648;8.330;2023-02-21T12:18:43;100595.16;;;15.65;66.24
11525;BME280;5819;49.648;8.330;2023-02-21T12:21:27;100583.84;;;15.93;65.50
11525;BME280;5819;49.648;8.330;2023-02-21T12:24:18;100585.28;;;16.13;64.66
11525;BME280;5819;49.648;8.330;2023-02-21T12:26:56;100577.09;;;16.17;63.58
11525;BME280;5819;49.648;8.330;2023-02-21T12:29:37;100570.97;;;16.59;63.63
11525;BME280;5819;49.648;8.330;2023-02-21T12:38:06;100550.75;;;17.01;61.51
11525;BME280;5819;49.648;8.330;2023-02-21T12:40:45;100558.59;;;16.88;61.20
11525;BME280;5819;49.648;8.330;2023-02-21T12:43:33;100548.94;;;17.01;61.66
11525;BME280;5819;49.648;8.330;2023-02-21T12:46:09;100540.19;;;17.27;61.51
11525;BME280;5819;49.648;8.330;2023-02-21T12:48:43;100537.53;;;17.15;61.06
11525;BME280;5819;49.648;8.330;2023-02-21T12:51:15;100537.50;;;17.02;60.72
11525;BME280;5819;49.648;8.330;2023-02-21T12:53:48;100538.28;;;16.90;62.20
11525;BME280;5819;49.648;8.330;2023-02-21T12:56:23;100530.53;;;17.01;60.51
11525;BME280;5819;49.648;8.330;2023-02-21T12:58:57;100520.91;;;16.75;61.22
11525;BME280;5819;49.648;8.330;2023-02-21T13:01:30;100525.81;;;16.67;61.36
11525;BME280;5819;49.648;8.330;2023-02-21T13:04:15;100525.56;;;16.57;61.68
11525;BME280;5819;49.648;8.330;2023-02-21T13:06:48;100515.66;;;16.75;61.60
11525;BME280;5819;49.648;8.330;2023-02-21T13:09:24;100511.97;;;16.77;61.25
11525;BME280;5819;49.648;8.330;2023-02-21T13:12:04;100505.41;;;16.84;60.82
11525;BME280;5819;49.648;8.330;2023-02-21T13:14:40;100496.53;;;16.73;60.61
11525;BME280;5819;49.648;8.330;2023-02-21T13:17:10;100497.50;;;16.84;61.24
11525;BME280;5819;49.648;8.330;2023-02-21T13:19:45;100492.69;;;16.91;60.06
11525;BME280;5819;49.648;8.330;2023-02-21T13:26:11;100485.22;;;16.58;61.26
11525;BME280;5819;49.648;8.330;2023-02-21T13:28:46;100479.53;;;16.91;60.71
11525;BME280;5819;49.648;8.330;2023-02-21T13:31:20;100474.03;;;16.81;60.71
11525;BME280;5819;49.648;8.330;2023-02-21T13:33:55;100475.91;;;16.67;62.05
11525;BME280;5819;49.648;8.330;2023-02-21T13:36:29;100472.34;;;16.68;61.76
11525;BME280;5819;49.648;8.330;2023-02-21T13:39:11;100466.59;;;16.75;61.51
11525;BME280;5819;49.648;8.330;2023-02-21T13:41:42;100461.94;;;16.66;61.75
11525;BME280;5819;49.648;8.330;2023-02-21T13:44:18;100462.16;;;16.49;63.07
11525;BME280;5819;49.648;8.330;2023-02-21T13:47:08;100451.13;;;16.44;62.88
11525;BME280;5819;49.648;8.330;2023-02-21T13:49:54;100450.06;;;16.47;61.95
11525;BME280;5819;49.648;8.330;2023-02-21T13:52:27;100440.16;;;16.37;63.03
11525;BME280;5819;49.648;8.330;2023-02-21T13:55:23;100442.88;;;16.09;64.81
11525;BME280;5819;49.648;8.330;2023-02-21T13:58:31;100450.75;;;16.09;64.05